Lolo, MT (59847)

4:34 PM MST on February 26, 2015 (GMT -0700)
Linda Vista | Change Station
CLOSE
Current Station
Personal Weather Station
Location: Missoula, MT
Elevation: 3353 ft
Nearby Weather Stations

Elev 3353 ft 46.81 °N, 114.06 °W | Updated 24 minutes ago

Clear
Clear
37.6 °F
Feels Like 38 °F
N
1.6
Wind Variable Wind from NNW
Gusts 1.6 mph

Today
High -- | Low -- °F
--% Chance of Precip.
Yesterday
High -- | Low -- °F
Precip. -- in
7:21 AM 6:17 PM
Waxing Gibbous, 63% visible
Pressure 30.12 in
Visibility 10.0 miles
Clouds Few 9000 ft
Windchill 38 °F
Dew Point 19 °F
Humidity 46%
Rainfall 0.00 in
Snow Depth Not available.
UV 2 out of 12
Pollen .40 out of 12
Air Quality Not available.
Flu Activity Not available.
METAR KMSO 262253Z 11008KT 10SM FEW090 03/M09 A3005 RMK AO2 SLP200 T00331089

More Conditions Fewer Conditions

Pressure 30.12 in
Visibility 10.0 miles
Clouds Few 9000 ft
Windchill 38 °F
Dew Point 19 °F
Humidity 46%
Rainfall 0.00 in
Snow Depth Not available.
UV 2 out of 12
Pollen .40 out of 12
Air Quality Not available.
Flu Activity Not available.
METAR KMSO 262253Z 11008KT 10SM FEW090 03/M09 A3005 RMK AO2 SLP200 T00331089

More Conditions Fewer Conditions

10-Day Weather Forecast

Almanac

Astronomy

Feb. 26, 2015 Rise Set
Actual Time
Civil Twilight
Nautical Twilight
Astronomical Twilight
Moon
Length of Visible Light
Length of Day
Tomorrow will be .
, % of the Moon is Illuminated

Today's Extremes

State Highs State Lows

Community

WunderPhotos

Upload Photos

1,800,528 photos uploaded!

WunderBlogs® & News

Nearby

Air Quality

  Air Quality AQ Index Pollutant
Not available.

Snow Depth

Station Depth Elevation

Earthquake Activity

City Distance Mag. Time & Date
Minimum magnitude displayed is 2.5.

Coastal Water Temperatures

Place Temperature

Nearby Weather Stations